sensor_id;sensor_type;location;lat;lon;timestamp;temperature;humidity
16966;DHT22;8599;47.852;12.070;2022-08-01T00:02:18;21.70;99.90
16966;DHT22;8599;47.852;12.070;2022-08-01T00:04:45;21.70;99.90
16966;DHT22;8599;47.852;12.070;2022-08-01T00:07:12;21.60;99.90
16966;DHT22;8599;47.852;12.070;2022-08-01T00:09:40;21.60;99.90
16966;DHT22;8599;47.852;12.070;2022-08-01T00:12:07;21.60;99.90
16966;DHT22;8599;47.852;12.070;2022-08-01T00:14:34;21.50;99.90
16966;DHT22;8599;47.852;12.070;2022-08-01T00:17:01;21.50;99.90
16966;DHT22;8599;47.852;12.070;2022-08-01T00:19:27;21.50;99.90
16966;DHT22;8599;47.852;12.070;2022-08-01T00:21:54;21.40;99.90
16966;DHT22;8599;47.852;12.070;2022-08-01T00:24:21;21.40;99.90
16966;DHT22;8599;47.852;12.070;2022-08-01T00:26:49;21.40;99.90
16966;DHT22;8599;47.852;12.070;2022-08-01T00:29:16;21.30;99.90
16966;DHT22;8599;47.852;12.070;2022-08-01T00:31:43;21.30;99.90
16966;DHT22;8599;47.852;12.070;2022-08-01T00:34:10;21.20;99.90
16966;DHT22;8599;47.852;12.070;2022-08-01T00:36:37;21.10;99.90
16966;DHT22;8599;47.852;12.070;2022-08-01T00:39:04;21.10;99.90
16966;DHT22;8599;47.852;12.070;2022-08-01T00:41:31;21.10;99.90
16966;DHT22;8599;47.852;12.070;2022-08-01T00:44:02;21.10;99.90
16966;DHT22;8599;47.852;12.070;2022-08-01T00:46:29;21.20;99.90
16966;DHT22;8599;47.852;12.070;2022-08-01T00:48:57;21.20;99.90
16966;DHT22;8599;47.852;12.070;2022-08-01T00:51:24;21.10;99.90
16966;DHT22;8599;47.852;12.070;2022-08-01T00:53:51;21.10;99.90
16966;DHT22;8599;47.852;12.070;2022-08-01T00:56:20;21.10;99.90
16966;DHT22;8599;47.852;12.070;2022-08-01T00:58:47;21.10;99.90
16966;DHT22;8599;47.852;12.070;2022-08-01T01:01:15;21.10;99.90
16966;DHT22;8599;47.852;12.070;2022-08-01T01:03:42;21.10;99.90
16966;DHT22;8599;47.852;12.070;2022-08-01T01:06:15;21.10;99.90
16966;DHT22;8599;47.852;12.070;2022-08-01T01:08:53;21.20;99.90
16966;DHT22;8599;47.852;12.070;2022-08-01T01:11:25;21.10;99.90
16966;DHT22;8599;47.852;12.070;2022-08-01T01:13:57;21.10;99.90
16966;DHT22;8599;47.852;12.070;2022-08-01T01:16:30;21.10;99.90
16966;DHT22;8599;47.852;12.070;2022-08-01T01:19:01;21.10;99.90
16966;DHT22;8599;47.852;12.070;2022-08-01T01:21:39;21.10;99.90
16966;DHT22;8599;47.852;12.070;2022-08-01T01:24:20;21.10;99.90
16966;DHT22;8599;47.852;12.070;2022-08-01T01:26:55;21.10;99.90
16966;DHT22;8599;47.852;12.070;2022-08-01T01:29:29;21.10;99.90
16966;DHT22;8599;47.852;12.070;2022-08-01T01:32:02;21.00;99.90
16966;DHT22;8599;47.852;12.070;2022-08-01T01:34:32;21.10;99.90
16966;DHT22;8599;47.852;12.070;2022-08-01T01:37:01;21.10;99.90
16966;DHT22;8599;47.852;12.070;2022-08-01T01:39:30;21.00;99.90
16966;DHT22;8599;47.852;12.070;2022-08-01T01:41:57;21.00;99.90
16966;DHT22;8599;47.852;12.070;2022-08-01T01:44:27;20.90;99.90
16966;DHT22;8599;47.852;12.070;2022-08-01T01:46:56;21.00;99.90
16966;DHT22;8599;47.852;12.070;2022-08-01T01:49:25;21.00;99.90
16966;DHT22;8599;47.852;12.070;2022-08-01T01:51:54;21.00;99.90
16966;DHT22;8599;47.852;12.070;2022-08-01T01:54:24;20.90;99.90
16966;DHT22;8599;47.852;12.070;2022-08-01T01:56:52;20.90;99.90
16966;DHT22;8599;47.852;12.070;2022-08-01T01:59:20;20.90;99.90
16966;DHT22;8599;47.852;12.070;2022-08-01T02:01:51;20.90;99.90
16966;DHT22;8599;47.852;12.070;2022-08-01T02:04:20;20.90;99.90
16966;DHT22;8599;47.852;12.070;2022-08-01T02:06:50;20.90;99.90
16966;DHT22;8599;47.852;12.070;2022-08-01T02:09:20;20.90;99.90
16966;DHT22;8599;47.852;12.070;2022-08-01T02:11:49;20.80;99.90
16966;DHT22;8599;47.852;12.070;2022-08-01T02:14:17;20.80;99.90
16966;DHT22;8599;47.852;12.070;2022-08-01T02:16:47;20.80;99.90
16966;DHT22;8599;47.852;12.070;2022-08-01T02:19:17;20.80;99.90
16966;DHT22;8599;47.852;12.070;2022-08-01T02:21:48;20.80;99.90
16966;DHT22;8599;47.852;12.070;2022-08-01T02:24:21;20.70;99.90
16966;DHT22;8599;47.852;12.070;2022-08-01T02:26:52;20.70;99.90
16966;DHT22;8599;47.852;12.070;2022-08-01T02:29:27;20.70;99.90
16966;DHT22;8599;47.852;12.070;2022-08-01T02:31:58;20.70;99.90
16966;DHT22;8599;47.852;12.070;2022-08-01T02:34:29;20.70;99.90
16966;DHT22;8599;47.852;12.070;2022-08-01T02:36:59;20.70;99.90
16966;DHT22;8599;47.852;12.070;2022-08-01T02:39:28;20.70;99.90
16966;DHT22;8599;47.852;12.070;2022-08-01T02:42:00;20.70;99.90
16966;DHT22;8599;47.852;12.070;2022-08-01T02:44:31;20.60;99.90
16966;DHT22;8599;47.852;12.070;2022-08-01T02:47:01;20.60;99.90
16966;DHT22;8599;47.852;12.070;2022-08-01T02:49:31;20.60;99.90
16966;DHT22;8599;47.852;12.070;2022-08-01T02:52:03;20.60;99.90
16966;DHT22;8599;47.852;12.070;2022-08-01T02:54:31;20.60;99.90
16966;DHT22;8599;47.852;12.070;2022-08-01T02:57:00;20.60;99.90
16966;DHT22;8599;47.852;12.070;2022-08-01T02:59:29;20.60;99.90
16966;DHT22;8599;47.852;12.070;2022-08-01T03:01:57;20.60;99.90
16966;DHT22;8599;47.852;12.070;2022-08-01T03:04:25;20.60;99.90
16966;DHT22;8599;47.852;12.070;2022-08-01T03:06:55;20.60;99.90
16966;DHT22;8599;47.852;12.070;2022-08-01T03:09:25;20.70;99.90
16966;DHT22;8599;47.852;12.070;2022-08-01T03:11:55;20.70;99.90
16966;DHT22;8599;47.852;12.070;2022-08-01T03:14:24;20.70;99.90
16966;DHT22;8599;47.852;12.070;2022-08-01T03:16:53;20.60;99.90
16966;DHT22;8599;47.852;12.070;2022-08-01T03:19:23;20.70;99.90
16966;DHT22;8599;47.852;12.070;2022-08-01T03:21:52;20.70;99.90
16966;DHT22;8599;47.852;12.070;2022-08-01T03:24:21;20.70;99.90
16966;DHT22;8599;47.852;12.070;2022-08-01T03:26:51;20.80;99.90
16966;DHT22;8599;47.852;12.070;2022-08-01T03:29:22;20.80;99.90
16966;DHT22;8599;47.852;12.070;2022-08-01T03:31:51;20.80;99.90
16966;DHT22;8599;47.852;12.070;2022-08-01T03:34:18;20.80;99.90
16966;DHT22;8599;47.852;12.070;2022-08-01T03:36:49;20.80;99.90
16966;DHT22;8599;47.852;12.070;2022-08-01T03:39:19;20.80;99.90
16966;DHT22;8599;47.852;12.070;2022-08-01T03:41:59;20.80;99.90
16966;DHT22;8599;47.852;12.070;2022-08-01T03:44:30;20.80;99.90
16966;DHT22;8599;47.852;12.070;2022-08-01T03:47:04;20.80;99.90
16966;DHT22;8599;47.852;12.070;2022-08-01T03:49:32;20.80;99.90
16966;DHT22;8599;47.852;12.070;2022-08-01T03:52:03;20.80;99.90
16966;DHT22;8599;47.852;12.070;2022-08-01T03:54:35;20.70;99.90
16966;DHT22;8599;47.852;12.070;2022-08-01T03:57:03;20.70;99.90
16966;DHT22;8599;47.852;12.070;2022-08-01T03:59:30;20.70;99.90
16966;DHT22;8599;47.852;12.070;2022-08-01T04:01:58;20.70;99.90
16966;DHT22;8599;47.852;12.070;2022-08-01T04:04:26;20.70;99.90
16966;DHT22;8599;47.852;12.070;2022-08-01T04:06:53;20.70;99.90
16966;DHT22;8599;47.852;12.070;2022-08-01T04:09:20;20.60;99.90
16966;DHT22;8599;47.852;12.070;2022-08-01T04:11:49;20.60;99.90
16966;DHT22;8599;47.852;12.070;2022-08-01T04:14:16;20.60;99.90
16966;DHT22;8599;47.852;12.070;2022-08-01T04:16:43;20.60;99.90
16966;DHT22;8599;47.852;12.070;2022-08-01T04:19:10;20.60;99.90
16966;DHT22;8599;47.852;12.070;2022-08-01T04:21:37;20.50;99.90
16966;DHT22;8599;47.852;12.070;2022-08-01T04:24:07;20.50;99.90
16966;DHT22;8599;47.852;12.070;2022-08-01T04:26:36;20.50;99.90
16966;DHT22;8599;47.852;12.070;2022-08-01T04:29:06;20.50;99.90
16966;DHT22;8599;47.852;12.070;2022-08-01T04:31:35;20.50;99.90
16966;DHT22;8599;47.852;12.070;2022-08-01T04:34:04;20.50;99.90
16966;DHT22;8599;47.852;12.070;2022-08-01T04:36:33;20.50;99.90
16966;DHT22;8599;47.852;12.070;2022-08-01T04:39:02;20.50;99.90
16966;DHT22;8599;47.852;12.070;2022-08-01T04:41:30;20.50;99.90
16966;DHT22;8599;47.852;12.070;2022-08-01T04:43:58;20.50;99.90
16966;DHT22;8599;47.852;12.070;2022-08-01T04:46:27;20.40;99.90
16966;DHT22;8599;47.852;12.070;2022-08-01T04:48:56;20.50;99.90
16966;DHT22;8599;47.852;12.070;2022-08-01T04:51:22;20.50;99.90
16966;DHT22;8599;47.852;12.070;2022-08-01T04:53:50;20.50;99.90
16966;DHT22;8599;47.852;12.070;2022-08-01T04:56:17;20.50;99.90
16966;DHT22;8599;47.852;12.070;2022-08-01T04:58:44;20.50;99.90
16966;DHT22;8599;47.852;12.070;2022-08-01T05:01:11;20.50;99.90
16966;DHT22;8599;47.852;12.070;2022-08-01T05:03:39;20.50;99.90
16966;DHT22;8599;47.852;12.070;2022-08-01T05:06:06;20.40;99.90
16966;DHT22;8599;47.852;12.070;2022-08-01T05:08:33;20.50;99.90
16966;DHT22;8599;47.852;12.070;2022-08-01T05:11:01;20.40;99.90
16966;DHT22;8599;47.852;12.070;2022-08-01T05:13:28;20.50;99.90
16966;DHT22;8599;47.852;12.070;2022-08-01T05:15:55;20.50;99.90
16966;DHT22;8599;47.852;12.070;2022-08-01T05:18:22;20.50;99.90
16966;DHT22;8599;47.852;12.070;2022-08-01T05:20:50;20.60;99.90
16966;DHT22;8599;47.852;12.070;2022-08-01T05:23:17;20.50;99.90
16966;DHT22;8599;47.852;12.070;2022-08-01T05:25:44;20.50;99.90
16966;DHT22;8599;47.852;12.070;2022-08-01T05:28:11;20.60;99.90
16966;DHT22;8599;47.852;12.070;2022-08-01T05:30:39;20.60;99.90
16966;DHT22;8599;47.852;12.070;2022-08-01T05:33:06;20.60;99.90
16966;DHT22;8599;47.852;12.070;2022-08-01T05:35:32;20.60;99.90
16966;DHT22;8599;47.852;12.070;2022-08-01T05:38:01;20.70;99.90
16966;DHT22;8599;47.852;12.070;2022-08-01T05:40:27;20.70;99.90
16966;DHT22;8599;47.852;12.070;2022-08-01T05:42:54;20.80;99.90
16966;DHT22;8599;47.852;12.070;2022-08-01T05:45:21;20.90;99.90
16966;DHT22;8599;47.852;12.070;2022-08-01T05:47:48;20.90;99.90
16966;DHT22;8599;47.852;12.070;2022-08-01T05:50:15;21.00;99.90
16966;DHT22;8599;47.852;12.070;2022-08-01T05:52:42;21.00;99.90
16966;DHT22;8599;47.852;12.070;2022-08-01T05:55:10;21.10;99.90
16966;DHT22;8599;47.852;12.070;2022-08-01T05:57:37;21.10;99.90
16966;DHT22;8599;47.852;12.070;2022-08-01T06:00:05;21.10;99.90
16966;DHT22;8599;47.852;12.070;2022-08-01T06:02:32;21.20;99.90
16966;DHT22;8599;47.852;12.070;2022-08-01T06:04:59;21.20;99.90
16966;DHT22;8599;47.852;12.070;2022-08-01T06:07:26;21.30;99.90
16966;DHT22;8599;47.852;12.070;2022-08-01T06:09:53;21.40;99.90
16966;DHT22;8599;47.852;12.070;2022-08-01T06:12:21;21.40;99.90
16966;DHT22;8599;47.852;12.070;2022-08-01T06:14:48;21.50;99.90
16966;DHT22;8599;47.852;12.070;2022-08-01T06:17:15;21.60;99.90
16966;DHT22;8599;47.852;12.070;2022-08-01T06:19:42;21.60;99.90
16966;DHT22;8599;47.852;12.070;2022-08-01T06:22:09;21.70;99.90
16966;DHT22;8599;47.852;12.070;2022-08-01T06:24:35;21.70;99.90
16966;DHT22;8599;47.852;12.070;2022-08-01T06:27:02;21.80;99.90
16966;DHT22;8599;47.852;12.070;2022-08-01T06:29:31;21.90;99.90
16966;DHT22;8599;47.852;12.070;2022-08-01T06:31:58;22.10;99.90
16966;DHT22;8599;47.852;12.070;2022-08-01T06:34:25;22.10;99.90
16966;DHT22;8599;47.852;12.070;2022-08-01T06:36:52;22.20;99.90
16966;DHT22;8599;47.852;12.070;2022-08-01T06:39:19;22.40;99.90
16966;DHT22;8599;47.852;12.070;2022-08-01T06:41:45;22.50;99.90
16966;DHT22;8599;47.852;12.070;2022-08-01T06:44:12;22.40;99.90
16966;DHT22;8599;47.852;12.070;2022-08-01T06:46:41;22.70;99.90
16966;DHT22;8599;47.852;12.070;2022-08-01T06:49:07;22.70;99.90
16966;DHT22;8599;47.852;12.070;2022-08-01T06:51:34;22.60;99.90
16966;DHT22;8599;47.852;12.070;2022-08-01T06:54:01;22.60;99.90
16966;DHT22;8599;47.852;12.070;2022-08-01T06:56:28;22.70;99.90
16966;DHT22;8599;47.852;12.070;2022-08-01T06:58:55;22.80;99.90
16966;DHT22;8599;47.852;12.070;2022-08-01T07:01:26;22.90;99.90
16966;DHT22;8599;47.852;12.070;2022-08-01T07:03:54;23.00;99.90
16966;DHT22;8599;47.852;12.070;2022-08-01T07:06:22;23.00;99.90
16966;DHT22;8599;47.852;12.070;2022-08-01T07:08:49;23.00;99.90
16966;DHT22;8599;47.852;12.070;2022-08-01T07:11:16;22.90;99.90
16966;DHT22;8599;47.852;12.070;2022-08-01T07:13:43;22.90;99.90
16966;DHT22;8599;47.852;12.070;2022-08-01T07:16:11;22.90;99.90
16966;DHT22;8599;47.852;12.070;2022-08-01T07:18:38;22.90;99.90
16966;DHT22;8599;47.852;12.070;2022-08-01T07:21:06;23.00;99.90
16966;DHT22;8599;47.852;12.070;2022-08-01T07:23:33;23.00;99.90
16966;DHT22;8599;47.852;12.070;2022-08-01T07:26:00;22.90;99.90
16966;DHT22;8599;47.852;12.070;2022-08-01T07:28:27;22.90;99.90
16966;DHT22;8599;47.852;12.070;2022-08-01T07:30:54;22.90;99.90
16966;DHT22;8599;47.852;12.070;2022-08-01T07:33:21;22.90;99.90
16966;DHT22;8599;47.852;12.070;2022-08-01T07:35:49;22.90;99.90
16966;DHT22;8599;47.852;12.070;2022-08-01T07:38:17;22.90;99.90
16966;DHT22;8599;47.852;12.070;2022-08-01T07:40:44;22.90;99.90
16966;DHT22;8599;47.852;12.070;2022-08-01T07:43:10;22.90;99.90
16966;DHT22;8599;47.852;12.070;2022-08-01T07:45:37;22.80;99.90
16966;DHT22;8599;47.852;12.070;2022-08-01T07:48:05;22.80;99.90
16966;DHT22;8599;47.852;12.070;2022-08-01T07:50:32;22.90;99.90
16966;DHT22;8599;47.852;12.070;2022-08-01T07:53:00;23.00;99.90
16966;DHT22;8599;47.852;12.070;2022-08-01T07:55:29;23.10;99.90
16966;DHT22;8599;47.852;12.070;2022-08-01T07:57:56;23.10;99.90
16966;DHT22;8599;47.852;12.070;2022-08-01T08:00:23;23.30;99.90
16966;DHT22;8599;47.852;12.070;2022-08-01T08:02:50;23.40;99.90
16966;DHT22;8599;47.852;12.070;2022-08-01T08:05:16;23.50;99.90
16966;DHT22;8599;47.852;12.070;2022-08-01T08:07:43;23.60;99.90
16966;DHT22;8599;47.852;12.070;2022-08-01T08:10:10;23.80;99.90
16966;DHT22;8599;47.852;12.070;2022-08-01T08:12:38;23.90;99.90
16966;DHT22;8599;47.852;12.070;2022-08-01T08:15:06;23.90;99.90
16966;DHT22;8599;47.852;12.070;2022-08-01T08:17:33;24.00;99.90
16966;DHT22;8599;47.852;12.070;2022-08-01T08:20:01;23.90;99.90
16966;DHT22;8599;47.852;12.070;2022-08-01T08:22:28;24.00;99.90
16966;DHT22;8599;47.852;12.070;2022-08-01T08:24:54;23.90;99.90
16966;DHT22;8599;47.852;12.070;2022-08-01T08:27:21;24.00;99.90
16966;DHT22;8599;47.852;12.070;2022-08-01T08:29:49;24.00;99.90
16966;DHT22;8599;47.852;12.070;2022-08-01T08:32:16;24.00;99.90
16966;DHT22;8599;47.852;12.070;2022-08-01T08:34:43;24.00;99.90
16966;DHT22;8599;47.852;12.070;2022-08-01T08:37:10;24.10;99.90
16966;DHT22;8599;47.852;12.070;2022-08-01T08:39:38;24.30;99.90
16966;DHT22;8599;47.852;12.070;2022-08-01T08:42:07;24.30;99.90
16966;DHT22;8599;47.852;12.070;2022-08-01T08:44:34;24.30;99.90
16966;DHT22;8599;47.852;12.070;2022-08-01T08:47:03;24.40;99.90
16966;DHT22;8599;47.852;12.070;2022-08-01T08:49:32;24.50;99.90
16966;DHT22;8599;47.852;12.070;2022-08-01T08:52:00;24.60;99.70
16966;DHT22;8599;47.852;12.070;2022-08-01T08:54:29;24.60;99.90
16966;DHT22;8599;47.852;12.070;2022-08-01T08:56:56;24.60;99.90
16966;DHT22;8599;47.852;12.070;2022-08-01T08:59:23;24.60;99.80
16966;DHT22;8599;47.852;12.070;2022-08-01T09:01:51;24.60;99.90
16966;DHT22;8599;47.852;12.070;2022-08-01T09:04:20;24.60;99.90
16966;DHT22;8599;47.852;12.070;2022-08-01T09:06:48;24.70;99.60
16966;DHT22;8599;47.852;12.070;2022-08-01T09:09:14;24.80;99.90
16966;DHT22;8599;47.852;12.070;2022-08-01T09:11:41;24.80;99.90
16966;DHT22;8599;47.852;12.070;2022-08-01T09:14:10;24.70;99.90
16966;DHT22;8599;47.852;12.070;2022-08-01T09:16:39;24.80;99.40
16966;DHT22;8599;47.852;12.070;2022-08-01T09:19:11;24.90;98.70
16966;DHT22;8599;47.852;12.070;2022-08-01T09:21:54;24.80;99.50
16966;DHT22;8599;47.852;12.070;2022-08-01T09:24:21;24.70;99.80
16966;DHT22;8599;47.852;12.070;2022-08-01T09:26:48;24.80;99.60
16966;DHT22;8599;47.852;12.070;2022-08-01T09:29:21;24.90;99.70
16966;DHT22;8599;47.852;12.070;2022-08-01T09:31:48;25.00;99.20
16966;DHT22;8599;47.852;12.070;2022-08-01T09:34:16;25.10;99.10
16966;DHT22;8599;47.852;12.070;2022-08-01T09:36:53;25.10;98.60
16966;DHT22;8599;47.852;12.070;2022-08-01T09:39:24;25.10;98.60
16966;DHT22;8599;47.852;12.070;2022-08-01T09:41:51;25.20;98.50
16966;DHT22;8599;47.852;12.070;2022-08-01T09:44:18;25.30;98.60
16966;DHT22;8599;47.852;12.070;2022-08-01T09:46:50;25.20;98.80
16966;DHT22;8599;47.852;12.070;2022-08-01T09:49:27;25.30;98.80
16966;DHT22;8599;47.852;12.070;2022-08-01T09:51:57;25.40;98.10
16966;DHT22;8599;47.852;12.070;2022-08-01T09:54:32;25.50;98.50
16966;DHT22;8599;47.852;12.070;2022-08-01T09:57:13;25.50;98.60
16966;DHT22;8599;47.852;12.070;2022-08-01T09:59:41;25.60;97.60
16966;DHT22;8599;47.852;12.070;2022-08-01T10:02:09;25.60;96.80
16966;DHT22;8599;47.852;12.070;2022-08-01T10:04:46;25.60;96.90
16966;DHT22;8599;47.852;12.070;2022-08-01T10:07:14;25.60;96.80
16966;DHT22;8599;47.852;12.070;2022-08-01T10:09:42;25.60;97.30
16966;DHT22;8599;47.852;12.070;2022-08-01T10:12:11;25.60;97.00
16966;DHT22;8599;47.852;12.070;2022-08-01T10:14:39;25.70;96.20
16966;DHT22;8599;47.852;12.070;2022-08-01T10:17:08;25.80;96.50
16966;DHT22;8599;47.852;12.070;2022-08-01T10:19:36;26.00;96.50
16966;DHT22;8599;47.852;12.070;2022-08-01T10:22:07;26.00;96.50
16966;DHT22;8599;47.852;12.070;2022-08-01T10:24:37;26.00;96.40
16966;DHT22;8599;47.852;12.070;2022-08-01T10:27:06;26.10;96.10
16966;DHT22;8599;47.852;12.070;2022-08-01T10:29:40;26.20;95.50
16966;DHT22;8599;47.852;12.070;2022-08-01T10:32:09;26.20;95.90
16966;DHT22;8599;47.852;12.070;2022-08-01T10:34:37;26.20;95.20
16966;DHT22;8599;47.852;12.070;2022-08-01T10:37:05;26.20;95.20
16966;DHT22;8599;47.852;12.070;2022-08-01T10:39:35;26.20;95.30
16966;DHT22;8599;47.852;12.070;2022-08-01T10:42:02;26.30;96.20
16966;DHT22;8599;47.852;12.070;2022-08-01T10:44:31;26.40;95.30
16966;DHT22;8599;47.852;12.070;2022-08-01T10:47:04;26.40;94.50
16966;DHT22;8599;47.852;12.070;2022-08-01T10:49:39;26.30;95.10
16966;DHT22;8599;47.852;12.070;2022-08-01T10:52:07;26.30;95.30
16966;DHT22;8599;47.852;12.070;2022-08-01T10:54:40;26.50;94.80
16966;DHT22;8599;47.852;12.070;2022-08-01T10:57:07;26.60;94.30
16966;DHT22;8599;47.852;12.070;2022-08-01T10:59:34;26.60;93.80
16966;DHT22;8599;47.852;12.070;2022-08-01T11:02:05;26.60;94.60
16966;DHT22;8599;47.852;12.070;2022-08-01T11:04:42;26.70;93.20
16966;DHT22;8599;47.852;12.070;2022-08-01T11:07:16;26.60;93.80
16966;DHT22;8599;47.852;12.070;2022-08-01T11:09:47;26.70;95.10
16966;DHT22;8599;47.852;12.070;2022-08-01T11:12:16;26.90;93.50
16966;DHT22;8599;47.852;12.070;2022-08-01T11:15:21;27.10;92.90
16966;DHT22;8599;47.852;12.070;2022-08-01T11:17:52;27.20;93.50
16966;DHT22;8599;47.852;12.070;2022-08-01T11:20:20;27.20;91.80
16966;DHT22;8599;47.852;12.070;2022-08-01T11:26:23;27.30;93.10
16966;DHT22;8599;47.852;12.070;2022-08-01T11:29:12;27.50;91.20
16966;DHT22;8599;47.852;12.070;2022-08-01T11:31:40;27.60;91.80
16966;DHT22;8599;47.852;12.070;2022-08-01T11:34:06;27.70;91.60
16966;DHT22;8599;47.852;12.070;2022-08-01T11:36:34;27.70;91.20
16966;DHT22;8599;47.852;12.070;2022-08-01T11:39:17;27.70;91.70
16966;DHT22;8599;47.852;12.070;2022-08-01T11:41:46;27.80;91.40
16966;DHT22;8599;47.852;12.070;2022-08-01T11:44:16;27.80;91.70
16966;DHT22;8599;47.852;12.070;2022-08-01T11:46:48;27.90;91.40
16966;DHT22;8599;47.852;12.070;2022-08-01T11:49:30;28.00;90.40
16966;DHT22;8599;47.852;12.070;2022-08-01T11:52:03;28.20;89.90
16966;DHT22;8599;47.852;12.070;2022-08-01T11:54:32;28.10;89.10
16966;DHT22;8599;47.852;12.070;2022-08-01T11:57:03;28.20;90.20
16966;DHT22;8599;47.852;12.070;2022-08-01T11:59:37;28.00;88.30
16966;DHT22;8599;47.852;12.070;2022-08-01T12:02:04;28.10;89.60
16966;DHT22;8599;47.852;12.070;2022-08-01T12:04:48;28.40;90.10
16966;DHT22;8599;47.852;12.070;2022-08-01T12:07:16;28.50;86.50
16966;DHT22;8599;47.852;12.070;2022-08-01T12:09:43;28.70;88.00
16966;DHT22;8599;47.852;12.070;2022-08-01T12:12:15;28.90;84.30
16966;DHT22;8599;47.852;12.070;2022-08-01T12:14:43;29.00;87.30
16966;DHT22;8599;47.852;12.070;2022-08-01T12:17:10;29.10;86.60
16966;DHT22;8599;47.852;12.070;2022-08-01T12:19:37;29.10;87.20
16966;DHT22;8599;47.852;12.070;2022-08-01T12:22:10;29.40;86.10
16966;DHT22;8599;47.852;12.070;2022-08-01T12:24:39;29.40;87.00
16966;DHT22;8599;47.852;12.070;2022-08-01T12:27:08;29.30;85.90
16966;DHT22;8599;47.852;12.070;2022-08-01T12:29:39;29.30;85.20
16966;DHT22;8599;47.852;12.070;2022-08-01T12:32:22;29.20;87.90
16966;DHT22;8599;47.852;12.070;2022-08-01T12:34:50;29.30;84.30
16966;DHT22;8599;47.852;12.070;2022-08-01T12:37:17;29.40;85.00
16966;DHT22;8599;47.852;12.070;2022-08-01T12:39:45;29.60;84.10
16966;DHT22;8599;47.852;12.070;2022-08-01T12:42:12;29.60;84.70
16966;DHT22;8599;47.852;12.070;2022-08-01T12:44:44;29.70;86.00
16966;DHT22;8599;47.852;12.070;2022-08-01T12:47:11;29.80;83.90
16966;DHT22;8599;47.852;12.070;2022-08-01T12:49:39;29.80;85.20
16966;DHT22;8599;47.852;12.070;2022-08-01T12:52:07;29.70;82.60
16966;DHT22;8599;47.852;12.070;2022-08-01T12:55:05;29.60;82.40
16966;DHT22;8599;47.852;12.070;2022-08-01T12:57:32;29.60;81.50
16966;DHT22;8599;47.852;12.070;2022-08-01T13:00:15;29.60;82.30
16966;DHT22;8599;47.852;12.070;2022-08-01T13:02:44;29.60;81.40
16966;DHT22;8599;47.852;12.070;2022-08-01T13:05:12;29.80;83.30
16966;DHT22;8599;47.852;12.070;2022-08-01T13:07:42;29.90;81.40
16966;DHT22;8599;47.852;12.070;2022-08-01T13:10:10;30.10;79.50
16966;DHT22;8599;47.852;12.070;2022-08-01T13:12:37;30.00;78.80
16966;DHT22;8599;47.852;12.070;2022-08-01T13:15:24;30.10;79.10
16966;DHT22;8599;47.852;12.070;2022-08-01T13:17:51;30.00;79.80
16966;DHT22;8599;47.852;12.070;2022-08-01T13:20:30;30.00;78.90
16966;DHT22;8599;47.852;12.070;2022-08-01T13:23:11;30.30;79.40
16966;DHT22;8599;47.852;12.070;2022-08-01T13:25:49;30.60;79.10
16966;DHT22;8599;47.852;12.070;2022-08-01T13:28:18;30.70;78.60
16966;DHT22;8599;47.852;12.070;2022-08-01T13:30:58;30.80;76.70
16966;DHT22;8599;47.852;12.070;2022-08-01T13:33:27;30.90;77.90
16966;DHT22;8599;47.852;12.070;2022-08-01T13:35:55;30.90;75.80
16966;DHT22;8599;47.852;12.070;2022-08-01T13:38:22;31.00;76.80
16966;DHT22;8599;47.852;12.070;2022-08-01T13:41:03;31.00;74.70
16966;DHT22;8599;47.852;12.070;2022-08-01T13:43:30;31.10;75.20
16966;DHT22;8599;47.852;12.070;2022-08-01T13:45:59;31.20;75.40
16966;DHT22;8599;47.852;12.070;2022-08-01T13:48:28;31.50;76.20
16966;DHT22;8599;47.852;12.070;2022-08-01T13:50:55;31.90;75.30
16966;DHT22;8599;47.852;12.070;2022-08-01T13:53:22;32.00;75.60
16966;DHT22;8599;47.852;12.070;2022-08-01T13:55:48;32.10;76.10
16966;DHT22;8599;47.852;12.070;2022-08-01T13:58:15;31.90;74.90
16966;DHT22;8599;47.852;12.070;2022-08-01T14:00:42;31.80;74.80
16966;DHT22;8599;47.852;12.070;2022-08-01T14:03:11;31.80;74.70
16966;DHT22;8599;47.852;12.070;2022-08-01T14:05:38;31.90;73.90
16966;DHT22;8599;47.852;12.070;2022-08-01T14:08:05;31.80;73.40
16966;DHT22;8599;47.852;12.070;2022-08-01T14:10:32;31.70;73.70
16966;DHT22;8599;47.852;12.070;2022-08-01T14:12:59;31.60;74.80
16966;DHT22;8599;47.852;12.070;2022-08-01T14:15:26;31.70;73.00
16966;DHT22;8599;47.852;12.070;2022-08-01T14:17:53;31.80;72.50
16966;DHT22;8599;47.852;12.070;2022-08-01T14:20:21;32.00;72.80
16966;DHT22;8599;47.852;12.070;2022-08-01T14:22:48;32.50;71.20
16966;DHT22;8599;47.852;12.070;2022-08-01T14:25:16;33.00;71.50
16966;DHT22;8599;47.852;12.070;2022-08-01T14:27:45;33.00;69.10
16966;DHT22;8599;47.852;12.070;2022-08-01T14:30:13;33.00;67.30
16966;DHT22;8599;47.852;12.070;2022-08-01T14:32:40;33.00;68.70
16966;DHT22;8599;47.852;12.070;2022-08-01T14:35:07;32.80;67.80
16966;DHT22;8599;47.852;12.070;2022-08-01T14:37:36;32.80;67.80
16966;DHT22;8599;47.852;12.070;2022-08-01T14:40:04;33.10;70.10
16966;DHT22;8599;47.852;12.070;2022-08-01T14:42:36;33.50;68.40
16966;DHT22;8599;47.852;12.070;2022-08-01T14:45:05;33.60;66.80
16966;DHT22;8599;47.852;12.070;2022-08-01T14:47:34;33.70;68.70
16966;DHT22;8599;47.852;12.070;2022-08-01T14:50:03;34.00;66.30
16966;DHT22;8599;47.852;12.070;2022-08-01T14:52:30;33.20;66.70
16966;DHT22;8599;47.852;12.070;2022-08-01T14:54:58;32.90;67.60
16966;DHT22;8599;47.852;12.070;2022-08-01T14:57:26;32.70;68.60
16966;DHT22;8599;47.852;12.070;2022-08-01T14:59:52;32.70;67.10
16966;DHT22;8599;47.852;12.070;2022-08-01T15:02:19;32.40;68.10
16966;DHT22;8599;47.852;12.070;2022-08-01T15:04:47;31.80;68.80
16966;DHT22;8599;47.852;12.070;2022-08-01T15:07:16;31.40;70.90
16966;DHT22;8599;47.852;12.070;2022-08-01T15:09:43;31.50;73.90
16966;DHT22;8599;47.852;12.070;2022-08-01T15:12:12;31.40;76.40
16966;DHT22;8599;47.852;12.070;2022-08-01T15:14:39;31.50;76.50
16966;DHT22;8599;47.852;12.070;2022-08-01T15:17:14;31.40;75.70
16966;DHT22;8599;47.852;12.070;2022-08-01T15:19:42;31.50;77.20
16966;DHT22;8599;47.852;12.070;2022-08-01T15:22:09;31.40;77.00
16966;DHT22;8599;47.852;12.070;2022-08-01T15:24:36;31.10;78.10
16966;DHT22;8599;47.852;12.070;2022-08-01T15:27:03;31.00;79.20
16966;DHT22;8599;47.852;12.070;2022-08-01T15:29:32;30.80;78.80
16966;DHT22;8599;47.852;12.070;2022-08-01T15:31:59;30.50;78.30
16966;DHT22;8599;47.852;12.070;2022-08-01T15:34:26;30.20;78.30
16966;DHT22;8599;47.852;12.070;2022-08-01T15:36:53;29.80;77.00
16966;DHT22;8599;47.852;12.070;2022-08-01T15:39:20;29.30;76.80
16966;DHT22;8599;47.852;12.070;2022-08-01T15:41:47;29.10;78.10
16966;DHT22;8599;47.852;12.070;2022-08-01T15:44:14;28.80;78.80
16966;DHT22;8599;47.852;12.070;2022-08-01T15:46:44;28.60;80.00